Airfield :
LOGIN :

Register | Disclaimer

   EN    FR    IT 

 










Legend :    VFR   Marginal VFR   IFR   Intensive IFR   Very Intensive IFR
Visi :
Ceiling :
>= 8 km
>= 3000ft
5 to 8 km
1000 to 3000 ft
1500m to 5 km
500 to 1000 ft
800 to 1500m
200 to 500 ft
< 800m
< 200 ft
Symbols :   Thunderstorms  Fog  Heavy snow  Heavy precipitations  Wind > 20 kt
SIGMETs :     Misc.  Thunderstorms  Icing  Turbulence  Mountain Waves  Volcanic Ashes







- Airport Elevation : 72 ft
- IATA code : UDE


EHVK - Volkel Airbase

CURRENT METAR :
  • 190755Z AUTO 35003KT 260V060 9999 FEW070 22/12 Q1018 BLU VRB03KT CAVOK

EXPIRED METARs :
  • 190725Z AUTO VRB02KT 9999 OVC066 21/12 Q1018 BLU VRB03KT CAVOK
  • 190655Z AUTO VRB02KT 9999 BKN067 21/13 Q1018 BLU VRB03KT CAVOK
  • 190625Z AUTO VRB01KT 9999 OVC065 20/13 Q1018 BLU VRB03KT CAVOK
  • 190555Z AUTO VRB02KT 9999 OVC066 18/13 Q1018 BLU VRB03KT CAVOK
  • 190525Z AUTO VRB02KT 9999 SCT069 16/14 Q1018 BLU VRB03KT CAVOK
  • 190520Z AUTO VRB02KT 9999 BKN069 16/14 Q1018 BLU VRB03KT CAVOK
  • 190455Z AUTO VRB02KT 9999 NCD 14/13 Q1018 BLU

TAF TAF EHVK
Valid from the 19 at 05:00 until the 19 at 17:00 UTC


190404Z 1905/1917 VRB03KT CAVOK
BECMG 1914/1917 31007KT
No reported NOTAMs for that airfield.



MET'MAP, your aeronautical weather chart ! - Copyright ORBIFLY December 2007 - Disclaimer

ORBIFLY MET'MAP TEAM :

Programming & Development : Alexandra Zaïnal
Concept & Development : Baudouin d'Aumeries
Co-Development & Prog : Marc-Olivier Méhu
Technical & hardware support : Manuel Goepfert

Contact : metmap@orbifly.com




SOURCES & CREDITS :

   NOAA